createdAt,value
2023-08-30T00:00:07.056Z,138.50
2023-08-30T00:02:35.366Z,138.38
2023-08-30T00:05:05.736Z,143.25
2023-08-30T00:07:33.616Z,139.55
2023-08-30T00:10:01.412Z,128.35
2023-08-30T00:12:29.217Z,124.65
2023-08-30T00:14:59.124Z,136.07
2023-08-30T00:17:26.995Z,114.82
2023-08-30T00:19:56.478Z,114.25
2023-08-30T00:22:25.632Z,119.82
2023-08-30T00:24:53.585Z,131.95
2023-08-30T00:27:21.719Z,139.05
2023-08-30T00:29:49.526Z,148.90
2023-08-30T00:32:17.324Z,134.43
2023-08-30T00:34:45.322Z,153.55
2023-08-30T00:37:13.122Z,156.00
2023-08-30T00:39:42.404Z,143.85
2023-08-30T00:42:12.392Z,134.30
2023-08-30T00:44:40.303Z,163.60
2023-08-30T00:47:08.186Z,162.85
2023-08-30T00:49:36.203Z,158.77
2023-08-30T00:52:08.288Z,106.22
2023-08-30T00:54:36.561Z,105.10
2023-08-30T00:57:08.944Z,104.18
2023-08-30T00:59:36.927Z,101.93
2023-08-30T01:02:06.249Z,101.32
2023-08-30T01:04:35.414Z,97.97
2023-08-30T01:07:05.654Z,111.33
2023-08-30T01:09:35.198Z,127.38
2023-08-30T01:12:12.981Z,125.15
2023-08-30T01:14:53.930Z,80.80
2023-08-30T01:17:24.138Z,90.57
2023-08-30T01:19:59.061Z,56.73
2023-08-30T01:22:40.739Z,52.10
2023-08-30T01:25:18.197Z,60.63
2023-08-30T01:27:49.288Z,60.92
2023-08-30T01:30:18.040Z,54.13
2023-08-30T01:32:47.261Z,68.53
2023-08-30T01:35:18.720Z,55.65
2023-08-30T01:37:47.929Z,73.53
2023-08-30T01:40:19.952Z,60.63
2023-08-30T01:42:50.681Z,60.57
2023-08-30T01:45:19.487Z,61.85
2023-08-30T01:47:50.685Z,93.53
2023-08-30T01:50:18.992Z,103.38
2023-08-30T01:52:47.931Z,116.72
2023-08-30T01:55:22.437Z,88.80
2023-08-30T01:57:52.067Z,76.60
2023-08-30T02:00:20.088Z,92.00
2023-08-30T02:02:50.048Z,107.67
2023-08-30T02:05:18.122Z,149.10
2023-08-30T02:07:53.730Z,166.98
2023-08-30T02:10:26.648Z,170.40
2023-08-30T02:12:59.750Z,141.45
2023-08-30T02:15:29.035Z,142.00
2023-08-30T02:17:57.710Z,85.13
2023-08-30T02:20:25.891Z,90.32
2023-08-30T02:22:53.682Z,93.68
2023-08-30T02:25:25.124Z,104.30
2023-08-30T02:27:53.182Z,117.07
2023-08-30T02:30:22.428Z,108.32
2023-08-30T02:32:54.892Z,117.95
2023-08-30T02:35:22.938Z,108.32
2023-08-30T02:37:50.726Z,91.30
2023-08-30T02:40:18.569Z,103.23
2023-08-30T02:42:46.469Z,116.53
2023-08-30T02:45:14.481Z,135.35
2023-08-30T02:47:43.553Z,196.82
2023-08-30T02:50:11.372Z,145.18
2023-08-30T02:52:39.224Z,111.80
2023-08-30T02:55:07.880Z,117.90
2023-08-30T02:57:35.640Z,90.38
2023-08-30T03:00:06.948Z,89.13
2023-08-30T03:02:35.206Z,106.75
2023-08-30T03:05:08.048Z,102.80
2023-08-30T03:07:38.981Z,150.63
2023-08-30T03:10:08.843Z,147.65
2023-08-30T03:12:38.352Z,173.10
2023-08-30T03:15:07.173Z,139.45
2023-08-30T03:17:35.279Z,154.73
2023-08-30T03:20:04.652Z,159.40
2023-08-30T03:22:34.328Z,215.43
2023-08-30T03:25:04.078Z,227.93
2023-08-30T03:27:31.962Z,229.32
2023-08-30T03:29:59.804Z,154.77
2023-08-30T03:32:33.215Z,143.63
2023-08-30T03:35:01.529Z,109.40
2023-08-30T03:37:29.278Z,104.22
2023-08-30T03:39:58.649Z,121.13
2023-08-30T03:42:26.730Z,108.22
2023-08-30T03:44:54.645Z,121.45
2023-08-30T03:47:22.454Z,149.93
2023-08-30T03:49:51.488Z,119.82
2023-08-30T03:52:21.434Z,137.20
2023-08-30T03:54:49.507Z,129.88
2023-08-30T03:57:18.599Z,150.73
2023-08-30T03:59:46.750Z,136.07
2023-08-30T04:02:14.788Z,147.77
2023-08-30T04:04:44.808Z,200.63
2023-08-30T04:07:12.557Z,161.00
2023-08-30T04:09:40.305Z,135.05
2023-08-30T04:12:08.968Z,134.70
2023-08-30T04:14:38.170Z,158.93
2023-08-30T04:17:08.262Z,171.27
2023-08-30T04:19:36.072Z,220.67
2023-08-30T04:22:03.981Z,227.90
2023-08-30T04:24:31.759Z,216.00
2023-08-30T04:26:59.542Z,228.65
2023-08-30T04:29:27.273Z,221.57
2023-08-30T04:31:56.540Z,230.43
2023-08-30T04:34:24.526Z,227.95
2023-08-30T04:36:52.463Z,203.77
2023-08-30T04:39:20.499Z,230.68
2023-08-30T04:41:50.472Z,227.30
2023-08-30T04:44:18.558Z,227.82
2023-08-30T04:46:46.486Z,225.93
2023-08-30T04:49:15.823Z,223.30
2023-08-30T04:51:44.940Z,241.18
2023-08-30T04:54:12.905Z,234.40
2023-08-30T04:56:40.649Z,232.93
2023-08-30T04:59:08.729Z,216.15
2023-08-30T05:01:45.178Z,224.23
2023-08-30T05:04:15.204Z,213.52
2023-08-30T05:06:43.016Z,218.98
2023-08-30T05:09:11.798Z,219.27
2023-08-30T05:11:39.596Z,232.23
2023-08-30T05:14:07.939Z,234.38
2023-08-30T05:16:35.729Z,233.20
2023-08-30T05:19:03.767Z,223.98
2023-08-30T05:21:35.114Z,195.23
2023-08-30T05:24:06.757Z,227.30
2023-08-30T05:26:35.457Z,218.60
2023-08-30T05:29:05.834Z,227.90
2023-08-30T05:31:33.907Z,214.07
2023-08-30T05:34:05.401Z,217.07
2023-08-30T05:36:53.960Z,215.97
2023-08-30T05:39:27.197Z,220.98
2023-08-30T05:41:58.027Z,220.70
2023-08-30T05:44:25.837Z,216.55
2023-08-30T05:46:54.881Z,217.15
2023-08-30T05:49:22.805Z,220.82
2023-08-30T05:51:53.094Z,225.02
2023-08-30T05:54:20.919Z,211.73
2023-08-30T05:56:48.720Z,220.60
2023-08-30T05:59:16.826Z,213.55
2023-08-30T06:01:47.843Z,214.95
2023-08-30T06:04:18.251Z,222.37
2023-08-30T06:06:46.091Z,228.47
2023-08-30T06:09:15.511Z,228.18
2023-08-30T06:11:43.747Z,214.57
2023-08-30T06:14:11.709Z,214.85
2023-08-30T06:16:39.646Z,208.20
2023-08-30T06:19:07.799Z,221.70
2023-08-30T06:21:35.676Z,210.37
2023-08-30T06:24:04.374Z,216.13
2023-08-30T06:26:33.855Z,209.85
2023-08-30T06:29:04.860Z,206.18
2023-08-30T06:31:34.283Z,218.57
2023-08-30T06:34:02.351Z,209.67
2023-08-30T06:36:30.256Z,200.52
2023-08-30T06:38:58.102Z,199.65
2023-08-30T06:41:25.970Z,207.98
2023-08-30T06:43:58.176Z,211.10
2023-08-30T06:46:28.506Z,200.23
2023-08-30T06:48:56.348Z,214.77
2023-08-30T06:51:24.290Z,198.10
2023-08-30T06:53:52.938Z,195.03
2023-08-30T06:56:20.836Z,186.20
2023-08-30T06:58:48.680Z,182.40
2023-08-30T07:01:17.846Z,179.70
2023-08-30T07:03:46.138Z,207.03
2023-08-30T07:06:13.987Z,177.77
2023-08-30T07:08:41.875Z,197.07
2023-08-30T07:11:23.565Z,207.30
2023-08-30T07:13:56.048Z,182.43
2023-08-30T07:16:25.227Z,197.05
2023-08-30T07:18:53.045Z,190.98
2023-08-30T07:21:20.890Z,176.13
2023-08-30T07:23:48.720Z,182.97
2023-08-30T07:26:16.603Z,172.63
2023-08-30T07:28:44.495Z,158.85
2023-08-30T07:31:14.991Z,160.35
2023-08-30T07:33:46.813Z,135.43
2023-08-30T07:36:14.642Z,133.82
2023-08-30T07:38:42.480Z,116.40
2023-08-30T07:41:12.943Z,146.60
2023-08-30T07:43:43.974Z,180.40
2023-08-30T07:46:11.807Z,126.40
2023-08-30T07:48:39.836Z,124.72
2023-08-30T07:51:09.099Z,126.18
2023-08-30T07:53:36.920Z,125.05
2023-08-30T07:56:05.396Z,125.65
2023-08-30T07:58:33.334Z,124.82
2023-08-30T08:01:01.402Z,114.07
2023-08-30T08:03:31.138Z,142.18
2023-08-30T08:06:01.014Z,120.97
2023-08-30T08:08:30.309Z,131.15
2023-08-30T08:11:01.774Z,153.38
2023-08-30T08:13:29.809Z,132.48
2023-08-30T08:15:58.635Z,131.10
2023-08-30T08:18:26.699Z,133.20
2023-08-30T08:20:54.876Z,143.82
2023-08-30T08:23:22.762Z,127.60
2023-08-30T08:25:59.566Z,135.20
2023-08-30T08:28:27.681Z,119.53
2023-08-30T08:30:55.524Z,126.10
2023-08-30T08:33:25.161Z,108.05
2023-08-30T08:35:53.211Z,112.03
2023-08-30T08:38:21.092Z,122.18
2023-08-30T08:40:51.377Z,113.35
2023-08-30T08:43:21.761Z,135.43
2023-08-30T08:45:51.280Z,116.93
2023-08-30T08:48:19.149Z,109.85
2023-08-30T08:50:51.283Z,112.28
2023-08-30T08:53:19.419Z,117.97
2023-08-30T08:55:49.000Z,118.07
2023-08-30T08:58:17.465Z,117.93
2023-08-30T09:00:47.545Z,119.60
2023-08-30T09:03:16.571Z,193.82
2023-08-30T09:05:45.122Z,279.00
2023-08-30T09:08:14.390Z,265.93
2023-08-30T09:10:42.424Z,229.20
2023-08-30T09:13:10.808Z,257.03
2023-08-30T09:15:41.236Z,246.85
2023-08-30T09:18:18.619Z,299.83
2023-08-30T09:20:46.754Z,279.10
2023-08-30T09:23:21.470Z,277.52
2023-08-30T09:25:55.963Z,273.67
2023-08-30T09:28:24.227Z,248.52
2023-08-30T09:30:52.503Z,247.80
2023-08-30T09:33:24.149Z,216.32
2023-08-30T09:35:52.558Z,264.63
2023-08-30T09:38:20.774Z,260.33
2023-08-30T09:40:49.083Z,275.83
2023-08-30T09:43:22.826Z,213.10
2023-08-30T09:45:50.685Z,199.35
2023-08-30T09:48:22.602Z,171.65
2023-08-30T09:50:55.593Z,241.73
2023-08-30T09:53:27.109Z,230.68
2023-08-30T09:55:55.550Z,197.50
2023-08-30T09:58:24.411Z,205.73
2023-08-30T10:00:52.895Z,188.30
2023-08-30T10:03:30.710Z,135.07
2023-08-30T10:06:05.396Z,105.07
2023-08-30T10:08:38.048Z,91.10
2023-08-30T10:11:08.414Z,105.28
2023-08-30T10:13:38.503Z,90.07
2023-08-30T10:16:07.159Z,81.35
2023-08-30T10:18:38.230Z,88.53
2023-08-30T10:21:14.574Z,91.43
2023-08-30T10:23:43.249Z,74.20
2023-08-30T10:26:11.514Z,75.72
2023-08-30T10:28:42.022Z,74.90
2023-08-30T10:31:10.519Z,68.70
2023-08-30T10:33:49.394Z,81.67
2023-08-30T10:36:24.853Z,46.22
2023-08-30T10:38:53.741Z,62.45
2023-08-30T10:41:22.665Z,60.37
2023-08-30T10:43:58.015Z,44.80
2023-08-30T10:46:37.425Z,52.78
2023-08-30T10:49:12.446Z,47.80
2023-08-30T10:51:42.593Z,75.57
2023-08-30T10:54:14.608Z,57.33
2023-08-30T10:56:50.385Z,31.17
2023-08-30T10:59:19.513Z,28.65
2023-08-30T11:01:48.784Z,36.93
2023-08-30T11:04:19.377Z,42.70
2023-08-30T11:06:49.255Z,63.73
2023-08-30T11:09:19.019Z,48.75
2023-08-30T11:11:47.160Z,83.03
2023-08-30T11:14:15.846Z,53.55
2023-08-30T11:16:44.011Z,28.15
2023-08-30T11:19:13.568Z,40.17
2023-08-30T11:21:44.428Z,38.17
2023-08-30T11:24:14.432Z,44.35
2023-08-30T11:26:42.423Z,45.92
2023-08-30T11:29:11.019Z,35.77
2023-08-30T11:31:38.897Z,79.10
2023-08-30T11:34:09.306Z,46.35
2023-08-30T11:36:38.406Z,37.10
2023-08-30T11:39:06.883Z,36.63
2023-08-30T11:41:36.138Z,33.70
2023-08-30T11:44:04.536Z,42.17
2023-08-30T11:46:32.426Z,76.43
2023-08-30T11:49:00.369Z,72.65
2023-08-30T11:51:28.342Z,78.07
2023-08-30T11:53:57.051Z,59.65
2023-08-30T11:56:25.137Z,55.60
2023-08-30T11:58:56.677Z,69.93
2023-08-30T12:01:24.945Z,87.87
2023-08-30T12:03:52.930Z,89.27
2023-08-30T12:06:20.865Z,71.32
2023-08-30T12:08:48.797Z,86.95
2023-08-30T12:11:21.297Z,86.23
2023-08-30T12:13:49.286Z,108.78
2023-08-30T12:16:19.928Z,102.50
2023-08-30T12:18:47.903Z,109.05
2023-08-30T12:21:17.020Z,119.43
2023-08-30T12:23:44.926Z,128.50
2023-08-30T12:26:14.971Z,133.02
2023-08-30T12:28:45.726Z,134.50
2023-08-30T12:31:13.912Z,137.60
2023-08-30T12:33:43.218Z,149.70
2023-08-30T12:36:15.856Z,158.07
2023-08-30T12:38:43.714Z,148.05
2023-08-30T12:41:11.599Z,149.55
2023-08-30T12:43:39.522Z,147.50
2023-08-30T12:46:08.552Z,138.67
2023-08-30T12:48:36.481Z,125.75
2023-08-30T12:51:06.077Z,119.70
2023-08-30T12:53:36.405Z,148.65
2023-08-30T12:56:05.706Z,165.70
2023-08-30T12:58:35.529Z,151.60
2023-08-30T13:01:03.620Z,155.23
2023-08-30T13:03:31.512Z,140.68
2023-08-30T13:06:01.190Z,140.77
2023-08-30T13:08:30.718Z,126.85
2023-08-30T13:11:01.624Z,122.22
2023-08-30T13:13:29.440Z,124.67
2023-08-30T13:15:57.246Z,116.75
2023-08-30T13:18:25.605Z,110.38
2023-08-30T13:20:56.412Z,116.05
2023-08-30T13:23:24.151Z,116.57
2023-08-30T13:25:58.988Z,112.32
2023-08-30T13:28:30.027Z,108.13
2023-08-30T13:31:01.476Z,112.90
2023-08-30T13:33:32.826Z,108.88
2023-08-30T13:36:03.332Z,99.68
2023-08-30T13:38:31.120Z,85.32
2023-08-30T13:41:05.128Z,81.88
2023-08-30T13:43:33.330Z,78.13
2023-08-30T13:46:01.547Z,63.33
2023-08-30T13:48:29.403Z,69.63
2023-08-30T13:50:59.328Z,59.50
2023-08-30T13:53:29.623Z,55.40
2023-08-30T13:55:57.419Z,61.17
2023-08-30T13:58:26.634Z,59.38
2023-08-30T14:00:54.371Z,54.58
2023-08-30T14:03:23.014Z,52.42
2023-08-30T14:05:50.826Z,54.38
2023-08-30T14:08:19.740Z,55.90
2023-08-30T14:10:47.665Z,52.65
2023-08-30T14:13:15.445Z,53.25
2023-08-30T14:15:44.644Z,53.40
2023-08-30T14:18:13.221Z,51.05
2023-08-30T14:20:43.469Z,54.40
2023-08-30T14:23:13.214Z,52.00
2023-08-30T14:25:41.512Z,53.83
2023-08-30T14:28:09.458Z,62.50
2023-08-30T14:30:37.412Z,59.65
2023-08-30T14:33:06.725Z,66.60
2023-08-30T14:35:34.964Z,57.08
2023-08-30T14:38:02.928Z,64.28
2023-08-30T14:40:30.786Z,83.03
2023-08-30T14:43:00.718Z,52.13
2023-08-30T14:45:30.531Z,56.50
2023-08-30T14:47:58.421Z,60.83
2023-08-30T14:50:27.559Z,39.87
2023-08-30T14:52:56.220Z,63.60
2023-08-30T14:55:25.405Z,84.25
2023-08-30T14:57:53.716Z,93.97
2023-08-30T15:00:21.728Z,101.90
2023-08-30T15:02:49.701Z,105.97
2023-08-30T15:05:18.373Z,97.20
2023-08-30T15:07:47.720Z,68.57
2023-08-30T15:10:16.984Z,126.53
2023-08-30T15:12:45.057Z,154.07
2023-08-30T15:15:13.091Z,168.13
2023-08-30T15:17:41.026Z,142.35
2023-08-30T15:20:10.003Z,172.43
2023-08-30T15:22:37.818Z,167.30
2023-08-30T15:25:07.788Z,183.55
2023-08-30T15:27:35.733Z,161.95
2023-08-30T15:30:03.696Z,149.70
2023-08-30T15:32:33.057Z,141.23
2023-08-30T15:35:01.012Z,142.32
2023-08-30T15:37:28.981Z,132.85
2023-08-30T15:40:05.050Z,132.50
2023-08-30T15:42:34.552Z,131.43
2023-08-30T15:45:02.626Z,123.33
2023-08-30T15:47:30.511Z,115.93
2023-08-30T15:49:58.392Z,130.32
2023-08-30T15:52:26.248Z,126.80
2023-08-30T15:54:55.626Z,92.32
2023-08-30T15:57:25.658Z,91.53
2023-08-30T15:59:55.169Z,89.43
2023-08-30T16:02:23.108Z,90.65
2023-08-30T16:04:51.434Z,104.50
2023-08-30T16:07:21.418Z,103.53
2023-08-30T16:09:49.422Z,92.13
2023-08-30T16:12:17.451Z,94.75
2023-08-30T16:14:45.542Z,83.60
2023-08-30T16:17:14.785Z,85.47
2023-08-30T16:19:42.677Z,85.80
2023-08-30T16:22:14.502Z,82.60
2023-08-30T16:24:42.355Z,95.97
2023-08-30T16:27:10.215Z,96.13
2023-08-30T16:29:40.187Z,101.35
2023-08-30T16:32:08.101Z,104.13
2023-08-30T16:34:38.002Z,116.47
2023-08-30T16:37:06.043Z,110.13
2023-08-30T16:39:34.838Z,122.23
2023-08-30T16:42:02.698Z,106.43
2023-08-30T16:44:30.751Z,119.00
2023-08-30T16:46:58.743Z,115.43
2023-08-30T16:49:28.362Z,107.47
2023-08-30T16:51:57.656Z,143.10
2023-08-30T16:54:25.618Z,136.65
2023-08-30T16:56:55.213Z,135.32
2023-08-30T16:59:23.448Z,134.53
2023-08-30T17:01:51.578Z,140.93
2023-08-30T17:04:21.863Z,141.40
2023-08-30T17:06:49.999Z,145.50
2023-08-30T17:09:19.236Z,156.85
2023-08-30T17:11:47.192Z,152.55
2023-08-30T17:14:19.217Z,148.05
2023-08-30T17:17:03.968Z,143.87
2023-08-30T17:19:33.540Z,144.38
2023-08-30T17:22:01.511Z,162.73
2023-08-30T17:24:32.984Z,154.00
2023-08-30T17:27:04.300Z,154.82
2023-08-30T17:29:32.161Z,147.20
2023-08-30T17:32:00.101Z,153.75
2023-08-30T17:34:28.030Z,154.57
2023-08-30T17:36:59.137Z,176.63
2023-08-30T17:39:29.395Z,169.32
2023-08-30T17:42:01.087Z,175.88
2023-08-30T17:44:28.928Z,179.83
2023-08-30T17:46:56.815Z,210.07
2023-08-30T17:49:24.749Z,222.80
2023-08-30T17:51:55.173Z,179.95
2023-08-30T17:54:23.089Z,181.43
2023-08-30T17:56:53.550Z,188.13
2023-08-30T17:59:22.796Z,227.15
2023-08-30T18:01:51.515Z,232.80
2023-08-30T18:04:19.567Z,241.82
2023-08-30T18:06:47.606Z,249.50
2023-08-30T18:09:16.224Z,258.60
2023-08-30T18:11:44.421Z,251.23
2023-08-30T18:14:12.371Z,250.55
2023-08-30T18:16:41.897Z,262.53
2023-08-30T18:19:09.802Z,258.20
2023-08-30T18:21:37.657Z,266.57
2023-08-30T18:24:17.724Z,251.43
2023-08-30T18:26:49.787Z,252.10
2023-08-30T18:29:19.505Z,260.15
2023-08-30T18:31:49.117Z,248.70
2023-08-30T18:34:17.847Z,252.55
2023-08-30T18:36:46.275Z,233.15
2023-08-30T18:39:15.016Z,242.73
2023-08-30T18:41:42.908Z,252.73
2023-08-30T18:44:10.930Z,264.80
2023-08-30T18:46:38.800Z,256.70
2023-08-30T18:49:08.119Z,258.00
2023-08-30T18:51:38.447Z,262.90
2023-08-30T18:54:07.649Z,268.50
2023-08-30T18:56:38.170Z,262.77
2023-08-30T18:59:06.610Z,256.87
2023-08-30T19:01:36.670Z,220.52
2023-08-30T19:04:06.266Z,190.33
2023-08-30T19:06:36.549Z,175.40
2023-08-30T19:09:05.815Z,107.05
2023-08-30T19:11:34.870Z,126.10
2023-08-30T19:14:04.899Z,120.75
2023-08-30T19:16:32.750Z,115.78
2023-08-30T19:19:00.649Z,114.57
2023-08-30T19:21:28.552Z,126.40
2023-08-30T19:23:57.825Z,115.25
2023-08-30T19:26:29.995Z,117.22
2023-08-30T19:28:57.907Z,113.03
2023-08-30T19:31:26.234Z,122.70
2023-08-30T19:33:54.050Z,124.72
2023-08-30T19:36:22.851Z,101.47
2023-08-30T19:38:53.117Z,92.00
2023-08-30T19:41:26.446Z,137.32
2023-08-30T19:43:55.619Z,126.40
2023-08-30T19:46:24.530Z,121.90
2023-08-30T19:48:52.835Z,130.68
2023-08-30T19:51:22.498Z,99.40
2023-08-30T19:53:52.025Z,149.02
2023-08-30T19:56:20.355Z,172.50
2023-08-30T19:58:49.644Z,173.15
2023-08-30T20:01:20.774Z,197.70
2023-08-30T20:03:48.830Z,196.52
2023-08-30T20:06:16.742Z,190.83
2023-08-30T20:08:44.596Z,174.90
2023-08-30T20:11:12.467Z,155.13
2023-08-30T20:13:40.787Z,146.97
2023-08-30T20:16:12.321Z,126.55
2023-08-30T20:18:40.218Z,132.98
2023-08-30T20:21:13.834Z,109.50
2023-08-30T20:23:41.739Z,107.38
2023-08-30T20:26:11.820Z,105.53
2023-08-30T20:28:39.646Z,96.97
2023-08-30T20:31:09.066Z,102.80
2023-08-30T20:33:38.235Z,85.68
2023-08-30T20:36:06.798Z,80.25
2023-08-30T20:38:34.651Z,68.90
2023-08-30T20:41:02.904Z,72.50
2023-08-30T20:43:30.777Z,83.38
2023-08-30T20:45:59.198Z,94.55
2023-08-30T20:48:30.671Z,78.93
2023-08-30T20:51:00.120Z,77.15
2023-08-30T20:53:34.286Z,80.17
2023-08-30T20:56:05.430Z,100.85
2023-08-30T20:58:40.886Z,98.47
2023-08-30T21:01:08.983Z,99.47
2023-08-30T21:03:37.188Z,84.05
2023-08-30T21:06:06.784Z,100.50
2023-08-30T21:08:37.094Z,87.15
2023-08-30T21:11:04.991Z,70.68
2023-08-30T21:13:33.121Z,71.55
2023-08-30T21:16:00.932Z,77.38
2023-08-30T21:18:28.712Z,100.55
2023-08-30T21:20:58.330Z,102.97
2023-08-30T21:23:28.354Z,99.05
2023-08-30T21:25:56.419Z,92.60
2023-08-30T21:28:24.341Z,86.77
2023-08-30T21:30:52.139Z,80.57
2023-08-30T21:33:20.723Z,87.15
2023-08-30T21:35:48.911Z,94.78
2023-08-30T21:38:18.172Z,103.90
2023-08-30T21:40:50.095Z,108.67
2023-08-30T21:43:17.911Z,98.72
2023-08-30T21:45:45.846Z,106.55
2023-08-30T21:48:13.748Z,99.40
2023-08-30T21:50:41.610Z,77.60
2023-08-30T21:53:12.201Z,89.70
2023-08-30T21:55:40.849Z,71.20
2023-08-30T21:58:10.021Z,91.25
2023-08-30T22:00:38.678Z,76.13
2023-08-30T22:03:07.356Z,81.90
2023-08-30T22:05:36.320Z,83.57
2023-08-30T22:08:05.326Z,86.57
2023-08-30T22:10:33.579Z,91.40
2023-08-30T22:13:01.454Z,73.35
2023-08-30T22:15:33.024Z,64.68
2023-08-30T22:18:01.159Z,77.70
2023-08-30T22:20:29.061Z,75.55
2023-08-30T22:22:56.953Z,91.65
2023-08-30T22:25:27.441Z,65.13
2023-08-30T22:27:55.654Z,52.92
2023-08-30T22:30:25.875Z,64.25
2023-08-30T22:32:56.853Z,84.53
2023-08-30T22:35:24.831Z,70.10
2023-08-30T22:37:52.573Z,75.35
2023-08-30T22:40:23.046Z,60.90
2023-08-30T22:42:52.116Z,85.63
2023-08-30T22:45:20.113Z,71.30
2023-08-30T22:47:47.892Z,73.73
2023-08-30T22:50:17.425Z,91.07
2023-08-30T22:52:45.316Z,92.27
2023-08-30T22:55:13.235Z,96.50
2023-08-30T22:57:41.078Z,67.88
2023-08-30T23:00:09.961Z,64.13
2023-08-30T23:02:38.784Z,65.60
2023-08-30T23:05:07.866Z,81.30
2023-08-30T23:07:37.015Z,95.22
2023-08-30T23:10:06.046Z,75.85
2023-08-30T23:12:36.645Z,69.07
2023-08-30T23:15:05.190Z,79.68
2023-08-30T23:17:44.420Z,81.00
2023-08-30T23:20:13.937Z,89.75
2023-08-30T23:22:43.897Z,82.67
2023-08-30T23:25:12.405Z,85.90
2023-08-30T23:27:42.251Z,73.97
2023-08-30T23:30:10.753Z,84.93
2023-08-30T23:32:39.052Z,73.25
2023-08-30T23:35:08.069Z,77.73
2023-08-30T23:37:36.096Z,89.22
2023-08-30T23:40:10.702Z,78.18
2023-08-30T23:42:38.810Z,72.23
2023-08-30T23:45:07.889Z,95.97
2023-08-30T23:47:35.968Z,91.43
2023-08-30T23:50:04.875Z,82.13
2023-08-30T23:52:32.645Z,82.88
2023-08-30T23:55:00.625Z,86.80
2023-08-30T23:57:29.702Z,90.07
2023-08-30T23:59:58.063Z,80.80
